Time;durP1;ratioP1;P1;durP2;ratioP2;P2;SDS_P1;SDS_P2;PMS_P1;PMS_P2;Temp;Humidity;BMP_temperature;BMP_pressure;BME280_temperature;BME280_humidity;BME280_pressure;Samples;Min_cycle;Max_cycle;Signal;HPM_P1;HPM_P2
2021/09/24 00:01:12;;;;;;;15.83;7.67;;;17.40;99.90;;;;;;6252056;22;20514;-86
2021/09/24 00:03:38;;;;;;;13.10;7.50;;;17.40;99.90;;;;;;6277980;22;20580;-88
2021/09/24 00:06:04;;;;;;;15.83;7.67;;;17.50;99.90;;;;;;6251279;22;20156;-88
2021/09/24 00:08:30;;;;;;;16.43;7.13;;;17.50;99.90;;;;;;6278415;22;20158;-87
2021/09/24 00:10:56;;;;;;;13.10;7.70;;;17.50;99.90;;;;;;6251369;22;20227;-87
2021/09/24 00:13:22;;;;;;;11.60;7.37;;;17.60;99.90;;;;;;6250998;22;20153;-87
2021/09/24 00:15:48;;;;;;;17.93;7.97;;;17.50;99.90;;;;;;6250953;22;20241;-87
2021/09/24 00:18:15;;;;;;;15.27;7.70;;;17.30;99.90;;;;;;6250791;22;20548;-87
2021/09/24 00:20:40;;;;;;;15.50;7.87;;;17.30;99.90;;;;;;6250937;22;20172;-88
2021/09/24 00:23:06;;;;;;;17.73;7.63;;;17.40;99.90;;;;;;6251131;22;20236;-87
2021/09/24 00:25:32;;;;;;;18.30;8.00;;;17.50;99.90;;;;;;6250183;22;20151;-89
2021/09/24 00:27:59;;;;;;;11.90;7.13;;;17.50;99.90;;;;;;6250734;22;20593;-87
2021/09/24 00:30:25;;;;;;;15.37;8.37;;;17.50;99.90;;;;;;6250339;22;20151;-85
2021/09/24 00:32:52;;;;;;;15.07;9.30;;;17.40;99.90;;;;;;6250864;22;20232;-88
2021/09/24 00:35:18;;;;;;;18.07;8.00;;;17.40;99.90;;;;;;6251149;22;20249;-88
2021/09/24 00:37:43;;;;;;;13.43;8.57;;;17.50;99.90;;;;;;6277042;22;20189;-87
2021/09/24 00:40:10;;;;;;;16.57;8.67;;;17.50;99.90;;;;;;6275733;22;20483;-86
2021/09/24 00:42:37;;;;;;;14.40;8.37;;;17.60;99.90;;;;;;6249194;22;20188;-87
2021/09/24 00:45:04;;;;;;;18.93;8.57;;;17.50;99.90;;;;;;6249467;22;20153;-88
2021/09/24 00:47:30;;;;;;;16.33;9.37;;;17.50;99.90;;;;;;6248731;22;20151;-88
2021/09/24 00:49:56;;;;;;;14.60;9.20;;;17.50;99.90;;;;;;6249375;22;20157;-88
2021/09/24 00:52:22;;;;;;;19.70;9.33;;;17.60;99.90;;;;;;6249639;22;20183;-88
2021/09/24 00:54:50;;;;;;;14.37;9.53;;;17.60;99.90;;;;;;6249191;22;20654;-87
2021/09/24 00:57:16;;;;;;;18.03;10.23;;;17.50;99.90;;;;;;6249513;22;20150;-88
2021/09/24 00:59:42;;;;;;;21.10;10.70;;;17.50;99.90;;;;;;6276025;22;20571;-88
2021/09/24 01:02:09;;;;;;;22.23;10.43;;;17.60;99.90;;;;;;6249264;22;20191;-88
2021/09/24 01:04:34;;;;;;;18.13;10.70;;;17.60;99.90;;;;;;6276551;22;20134;-87
2021/09/24 01:07:01;;;;;;;21.57;10.17;;;17.50;99.90;;;;;;6249122;22;20165;-87
2021/09/24 01:09:28;;;;;;;18.60;10.83;;;17.50;99.90;;;;;;6249164;22;20150;-88
2021/09/24 01:11:53;;;;;;;18.57;10.50;;;17.50;99.90;;;;;;6249286;22;20156;-87
2021/09/24 01:14:19;;;;;;;21.60;10.30;;;17.40;99.90;;;;;;6249525;22;20244;-87
2021/09/24 01:16:45;;;;;;;19.30;10.80;;;17.40;99.90;;;;;;6249122;22;20534;-87
2021/09/24 01:19:10;;;;;;;20.03;10.90;;;17.40;99.90;;;;;;6249165;22;20151;-87
2021/09/24 01:21:41;;;;;;;17.90;10.67;;;17.50;99.90;;;;;;6248950;22;20637;-88
2021/09/24 01:24:08;;;;;;;19.40;10.93;;;17.40;99.90;;;;;;6249297;22;20153;-87
2021/09/24 01:26:34;;;;;;;21.30;10.83;;;17.40;99.90;;;;;;6276043;22;20147;-88
2021/09/24 01:28:59;;;;;;;18.23;11.37;;;17.40;99.90;;;;;;6249406;22;20184;-88
2021/09/24 01:31:25;;;;;;;22.73;10.47;;;17.50;99.90;;;;;;6249248;22;20192;-85
2021/09/24 01:33:53;;;;;;;22.97;11.73;;;17.50;99.90;;;;;;6249031;22;20160;-88
2021/09/24 01:36:19;;;;;;;22.83;12.27;;;17.50;99.90;;;;;;6276311;22;20138;-87
2021/09/24 01:38:45;;;;;;;20.77;11.60;;;17.30;99.90;;;;;;6201100;22;1117799;-87
2021/09/24 01:41:10;;;;;;;26.17;11.40;;;17.30;99.90;;;;;;6249851;22;20174;-88
2021/09/24 01:43:37;;;;;;;23.57;11.33;;;17.20;99.90;;;;;;6250229;22;20161;-88
2021/09/24 01:46:04;;;;;;;25.40;11.70;;;17.20;99.90;;;;;;6250027;22;20144;-88
2021/09/24 01:48:30;;;;;;;16.87;10.80;;;17.30;99.90;;;;;;6276980;22;20152;-86
2021/09/24 01:50:56;;;;;;;17.67;12.20;;;17.30;99.90;;;;;;6250380;22;20608;-88
2021/09/24 01:53:22;;;;;;;21.23;11.93;;;17.50;99.90;;;;;;6277423;22;20196;-87
2021/09/24 01:55:48;;;;;;;18.80;11.43;;;17.50;99.90;;;;;;6250471;22;20158;-86
2021/09/24 01:58:14;;;;;;;20.83;12.00;;;17.50;99.90;;;;;;6250250;22;20174;-88
2021/09/24 02:00:41;;;;;;;17.10;11.57;;;17.50;99.90;;;;;;6276865;22;20191;-88
2021/09/24 02:03:07;;;;;;;18.57;10.97;;;17.60;99.90;;;;;;6250279;22;20637;-88
2021/09/24 02:05:32;;;;;;;22.37;11.90;;;17.60;99.90;;;;;;6250336;22;20143;-85
2021/09/24 02:07:59;;;;;;;24.53;11.90;;;17.60;99.90;;;;;;6250010;22;20238;-87
2021/09/24 02:10:25;;;;;;;18.37;11.60;;;17.60;99.90;;;;;;6250618;22;20157;-87
2021/09/24 02:12:51;;;;;;;20.63;12.07;;;17.50;99.90;;;;;;6250109;22;20148;-88
2021/09/24 02:15:16;;;;;;;23.50;11.83;;;17.40;99.90;;;;;;6277017;22;20270;-87
2021/09/24 02:17:43;;;;;;;25.90;12.83;;;17.40;99.90;;;;;;6250241;22;20142;-88
2021/09/24 02:20:10;;;;;;;23.33;12.30;;;17.40;99.90;;;;;;6277185;22;20207;-88
2021/09/24 02:22:36;;;;;;;17.33;11.43;;;17.50;99.90;;;;;;6249913;22;20200;-88
2021/09/24 02:25:03;;;;;;;23.30;11.93;;;17.50;99.90;;;;;;6250076;22;20157;-88
2021/09/24 02:27:29;;;;;;;21.37;11.77;;;17.60;99.90;;;;;;6277083;22;20579;-88
2021/09/24 02:29:56;;;;;;;25.27;11.40;;;17.70;99.90;;;;;;6249829;22;20149;-88
2021/09/24 02:32:21;;;;;;;19.73;11.70;;;17.60;99.90;;;;;;6250241;22;20161;-88
2021/09/24 02:34:47;;;;;;;21.27;11.97;;;17.60;99.90;;;;;;6250208;22;20147;-87
2021/09/24 02:37:13;;;;;;;25.03;12.23;;;17.60;99.90;;;;;;6250219;22;20169;-87
2021/09/24 02:39:38;;;;;;;23.23;11.70;;;17.50;99.90;;;;;;6276656;22;20153;-87
2021/09/24 02:42:04;;;;;;;26.43;12.13;;;17.50;99.90;;;;;;6277448;22;20181;-88
2021/09/24 02:44:30;;;;;;;21.40;12.00;;;17.50;99.90;;;;;;6249826;22;20152;-88
2021/09/24 02:46:55;;;;;;;20.90;12.67;;;17.60;99.90;;;;;;6277340;22;20573;-88
2021/09/24 02:49:21;;;;;;;25.73;12.13;;;17.60;99.90;;;;;;6249968;22;20221;-87
2021/09/24 02:51:47;;;;;;;24.63;12.47;;;17.60;99.90;;;;;;6250442;22;20228;-87
2021/09/24 02:54:12;;;;;;;21.77;11.67;;;17.50;99.90;;;;;;6251723;22;20240;-86
2021/09/24 02:56:38;;;;;;;19.80;12.07;;;17.50;99.90;;;;;;6252027;22;20153;-88
2021/09/24 02:59:03;;;;;;;21.93;11.77;;;17.60;99.90;;;;;;6279697;22;20164;-88
2021/09/24 03:01:29;;;;;;;24.43;12.27;;;17.70;99.90;;;;;;6280480;22;20206;-88
2021/09/24 03:03:55;;;;;;;20.67;12.50;;;17.80;99.90;;;;;;6254221;22;20142;-88
2021/09/24 03:06:20;;;;;;;24.90;12.13;;;17.90;99.90;;;;;;6261349;22;20151;-87
2021/09/24 03:08:46;;;;;;;21.57;12.77;;;17.90;99.90;;;;;;6264400;22;20223;-88
2021/09/24 03:11:12;;;;;;;27.77;13.57;;;17.80;99.90;;;;;;6260959;22;20150;-88
2021/09/24 03:13:37;;;;;;;24.37;12.53;;;17.80;99.90;;;;;;6278863;22;20149;-86
2021/09/24 03:16:04;;;;;;;27.20;13.70;;;17.80;99.90;;;;;;6252018;22;20154;-87
2021/09/24 03:18:30;;;;;;;25.40;13.47;;;17.90;99.90;;;;;;6252164;22;20180;-87
2021/09/24 03:20:56;;;;;;;22.73;14.40;;;17.90;99.90;;;;;;6251862;22;20678;-88
2021/09/24 03:23:21;;;;;;;33.87;14.40;;;17.90;99.90;;;;;;6251747;22;20225;-87
2021/09/24 03:25:48;;;;;;;20.83;13.03;;;17.90;99.90;;;;;;6251429;22;20157;-88
2021/09/24 03:28:15;;;;;;;26.00;13.73;;;17.80;99.90;;;;;;6251067;22;20205;-82
2021/09/24 03:30:41;;;;;;;26.87;12.73;;;17.90;99.90;;;;;;6250855;22;20146;-83
2021/09/24 03:33:07;;;;;;;25.57;13.00;;;18.00;99.90;;;;;;6251009;22;20525;-87
2021/09/24 03:35:33;;;;;;;22.83;11.50;;;18.00;99.90;;;;;;6251848;22;20143;-87
2021/09/24 03:37:58;;;;;;;20.73;11.40;;;18.00;99.90;;;;;;6251476;22;20185;-87
2021/09/24 03:40:24;;;;;;;22.17;12.80;;;18.00;99.90;;;;;;6251608;22;20229;-88
2021/09/24 03:42:50;;;;;;;23.50;12.70;;;18.00;99.90;;;;;;6250979;22;20191;-88
2021/09/24 03:45:15;;;;;;;26.93;12.63;;;17.90;99.90;;;;;;6251355;22;20135;-88
2021/09/24 03:47:41;;;;;;;24.07;12.80;;;17.80;99.90;;;;;;6251805;22;20150;-87
2021/09/24 03:50:08;;;;;;;24.27;11.87;;;17.90;99.90;;;;;;6251618;22;20143;-88
2021/09/24 03:52:34;;;;;;;23.00;11.40;;;17.80;99.90;;;;;;6251654;22;20217;-87
2021/09/24 03:55:00;;;;;;;21.30;12.77;;;17.80;99.90;;;;;;6278004;22;20568;-88
2021/09/24 03:57:26;;;;;;;21.87;12.10;;;17.80;99.90;;;;;;6250974;22;20614;-88
2021/09/24 03:59:52;;;;;;;22.87;11.43;;;17.80;99.90;;;;;;6251078;22;20143;-87
2021/09/24 04:02:18;;;;;;;21.70;13.77;;;17.70;99.90;;;;;;6251781;22;20230;-83
2021/09/24 04:04:43;;;;;;;26.57;13.43;;;17.80;99.90;;;;;;6250675;22;20147;-87
2021/09/24 04:07:09;;;;;;;21.50;13.07;;;17.80;99.90;;;;;;6251685;22;20597;-88
2021/09/24 04:09:36;;;;;;;30.80;13.20;;;17.80;99.90;;;;;;6251784;22;20154;-88
2021/09/24 04:12:01;;;;;;;26.53;12.77;;;17.80;99.90;;;;;;6250843;22;20209;-88
2021/09/24 04:14:27;;;;;;;24.17;12.53;;;17.80;99.90;;;;;;6251141;22;20147;-88
2021/09/24 04:16:53;;;;;;;19.27;12.30;;;17.80;99.90;;;;;;6248980;22;20150;-87
2021/09/24 04:19:20;;;;;;;20.83;12.63;;;17.90;99.90;;;;;;6276848;22;20216;-88
2021/09/24 04:21:45;;;;;;;22.93;12.23;;;17.80;99.90;;;;;;6251002;22;20212;-88
2021/09/24 04:24:11;;;;;;;22.17;12.37;;;17.70;99.90;;;;;;6277991;22;20567;-89
2021/09/24 04:26:37;;;;;;;21.53;11.80;;;17.60;99.90;;;;;;6250592;22;20151;-88
2021/09/24 04:29:05;;;;;;;27.60;12.57;;;17.60;99.90;;;;;;6250917;22;20261;-88
2021/09/24 04:31:31;;;;;;;23.83;11.73;;;17.70;99.90;;;;;;6250947;22;20470;-88
2021/09/24 04:33:56;;;;;;;22.27;11.40;;;17.80;99.90;;;;;;6251115;22;20284;-88
2021/09/24 04:36:22;;;;;;;23.40;11.67;;;17.90;99.90;;;;;;6251502;22;20163;-88
2021/09/24 04:38:48;;;;;;;27.47;14.63;;;17.90;99.90;;;;;;6250841;22;20241;-85
2021/09/24 04:41:14;;;;;;;35.17;15.47;;;17.80;99.90;;;;;;6250538;22;20221;-88
2021/09/24 04:43:39;;;;;;;34.40;16.43;;;17.80;99.90;;;;;;6251336;22;20481;-89
2021/09/24 04:46:05;;;;;;;26.73;14.77;;;17.90;99.90;;;;;;6249573;22;20235;-88
2021/09/24 04:48:32;;;;;;;31.83;15.67;;;17.90;99.90;;;;;;6248758;22;20154;-87
2021/09/24 04:50:58;;;;;;;28.47;15.60;;;17.90;99.90;;;;;;6247606;22;20155;-87
2021/09/24 04:53:24;;;;;;;29.73;15.03;;;17.90;99.90;;;;;;6250807;22;20146;-88
2021/09/24 04:55:49;;;;;;;29.17;16.13;;;17.90;99.90;;;;;;6250608;22;20209;-86
2021/09/24 04:58:15;;;;;;;28.30;16.43;;;17.90;99.90;;;;;;6250732;22;20149;-87
2021/09/24 05:00:40;;;;;;;29.13;15.87;;;17.90;99.90;;;;;;6251263;22;20540;-88
2021/09/24 05:03:06;;;;;;;28.23;14.80;;;17.70;99.90;;;;;;6250314;22;20603;-88
2021/09/24 05:05:32;;;;;;;26.43;15.33;;;17.70;99.90;;;;;;6250712;22;20142;-87
2021/09/24 05:07:58;;;;;;;31.07;15.03;;;17.70;99.90;;;;;;6277582;22;20150;-85
2021/09/24 05:10:23;;;;;;;26.00;14.67;;;17.70;99.90;;;;;;6249985;22;20251;-88
2021/09/24 05:12:49;;;;;;;31.27;14.33;;;17.70;99.90;;;;;;6276782;22;20582;-88
2021/09/24 05:15:14;;;;;;;32.17;15.40;;;17.80;99.90;;;;;;6250623;22;20579;-88
2021/09/24 05:17:40;;;;;;;26.37;14.27;;;17.90;99.90;;;;;;6250211;22;20145;-88
2021/09/24 05:20:07;;;;;;;22.37;14.17;;;17.90;99.90;;;;;;6250027;22;20174;-88
2021/09/24 05:22:32;;;;;;;23.07;14.63;;;17.90;99.90;;;;;;6248571;22;20243;-87
2021/09/24 06:13:41;;;;;;;25.80;15.20;;;18.00;99.90;;;;;;6248533;22;20205;-94
2021/09/24 06:39:12;;;;;;;26.23;14.10;;;18.10;99.90;;;;;;6106263;23;20181;-93
2021/09/24 06:41:53;;;;;;;27.10;14.37;;;18.00;99.90;;;;;;6100399;23;20257;-93
2021/09/24 06:48:36;;;;;;;23.47;14.20;;;18.10;99.90;;;;;;6010512;23;20579;-93
2021/09/24 06:52:04;;;;;;;27.40;13.70;;;18.20;99.90;;;;;;5974697;23;20164;-93
2021/09/24 06:58:00;;;;;;;27.37;12.80;;;18.30;99.90;;;;;;6062064;22;20603;-92
2021/09/24 07:00:28;;;;;;;22.80;12.60;;;18.30;99.90;;;;;;6249551;22;20177;-93
2021/09/24 07:03:36;;;;;;;;;;;;;;;;;;;;;
2021/09/24 07:06:55;;;;;;;;;;;;;;;;;;;;;
2021/09/24 07:10:00;;;;;;;;;;;;;;;;;;;;;
2021/09/24 07:12:49;;;;;;;22.20;11.10;;;18.30;99.90;;;;;;6262590;22;20242;-92
2021/09/24 07:15:43;;;;;;;26.67;11.97;;;18.40;99.90;;;;;;6250844;22;20173;-91
2021/09/24 07:18:41;;;;;;;;;;;;;;;;;;;;;
2021/09/24 07:21:17;;;;;;;;;;;;;;;;;;;;;
2021/09/24 07:24:33;;;;;;;23.13;12.93;;;18.40;99.90;;;;;;6247009;23;20224;-92
2021/09/24 07:30:08;;;;;;;22.40;11.80;;;18.30;99.90;;;;;;6203765;23;20531;-93
2021/09/24 07:32:43;;;;;;;22.73;11.47;;;18.40;99.90;;;;;;6217330;23;20217;-92
2021/09/24 07:35:12;;;;;;;24.97;11.07;;;18.50;99.90;;;;;;6218508;23;20178;-91
2021/09/24 07:37:38;;;;;;;24.33;11.83;;;18.60;99.90;;;;;;6222786;23;20151;-93
2021/09/24 07:46:56;;;;;;;19.27;12.30;;;18.60;99.90;;;;;;6228829;23;20151;-93
2021/09/24 07:49:53;;;;;;;24.50;12.87;;;18.70;99.90;;;;;;6222353;23;20151;-93
2021/09/24 07:52:18;;;;;;;25.23;12.43;;;18.60;99.90;;;;;;6249838;23;20174;-93
2021/09/24 07:54:43;;;;;;;23.43;12.17;;;18.60;99.90;;;;;;6221414;23;20155;-92
2021/09/24 07:57:26;;;;;;;24.07;13.10;;;18.60;99.90;;;;;;6220680;23;20159;-92
2021/09/24 07:59:52;;;;;;;22.93;12.20;;;18.70;99.90;;;;;;6223683;23;20629;-93
2021/09/24 08:06:05;;;;;;;29.63;13.83;;;18.80;99.90;;;;;;6239606;23;20233;-95
2021/09/24 08:08:34;;;;;;;26.70;12.77;;;18.70;99.90;;;;;;6229148;23;20158;-94
2021/09/24 08:11:03;;;;;;;21.80;12.70;;;18.70;99.90;;;;;;6227858;23;20141;-92
2021/09/24 08:13:34;;;;;;;25.57;11.67;;;18.70;99.90;;;;;;6228299;23;20604;-92
2021/09/24 08:16:02;;;;;;;20.80;13.00;;;18.90;99.90;;;;;;6229099;23;20170;-93
2021/09/24 08:18:31;;;;;;;22.73;12.43;;;19.00;99.90;;;;;;6229787;23;20144;-93
2021/09/24 08:20:59;;;;;;;27.60;12.40;;;19.00;99.90;;;;;;6229653;23;20181;-93
2021/09/24 08:26:56;;;;;;;20.70;11.40;;;19.10;99.90;;;;;;6207158;23;20213;-94
2021/09/24 08:29:21;;;;;;;22.87;11.77;;;19.10;99.90;;;;;;6252678;23;20162;-92
2021/09/24 08:32:01;;;;;;;21.00;11.30;;;19.30;99.90;;;;;;6227692;23;20272;-92
2021/09/24 08:37:28;;;;;;;;;;;;;;;;;;;;;
2021/09/24 08:40:04;;;;;;;20.27;10.77;;;19.60;99.90;;;;;;6257070;23;20156;-92
2021/09/24 08:42:40;;;;;;;21.90;12.37;;;19.60;99.90;;;;;;6228812;23;20219;-94
2021/09/24 08:48:22;;;;;;;18.67;12.13;;;19.40;99.90;;;;;;6219047;23;20248;-93
2021/09/24 08:53:53;;;;;;;21.43;11.53;;;19.60;99.90;;;;;;6245312;23;20211;-91
2021/09/24 08:56:32;;;;;;;;;;;;;;;;;;;;;
2021/09/24 08:59:09;;;;;;;;;;;;;;;;;;;;;
2021/09/24 09:01:55;;;;;;;19.33;11.10;;;19.70;99.90;;;;;;6256101;23;20203;-92
2021/09/24 09:06:02;;;;;;;;;;;;;;;;;;;;;
2021/09/24 09:19:22;;;;;;;16.63;9.50;;;20.30;99.90;;;;;;6182447;23;20154;-93
2021/09/24 09:22:41;;;;;;;15.73;9.50;;;20.50;99.90;;;;;;6229651;23;20225;-93
2021/09/24 09:29:32;;;;;;;;;;;;;;;;;;;;;
2021/09/24 09:39:32;;;;;;;;;;;;;;;;;;;;;
2021/09/24 11:37:03;;;;;;;;;;;;;;;;;;;;;
2021/09/24 12:14:08;;;;;;;3.23;1.57;;;27.90;94.00;;;;;;6224956;22;20210;-79
2021/09/24 12:16:40;;;;;;;2.83;1.10;;;28.90;93.10;;;;;;6218616;23;20171;-82
2021/09/24 12:19:14;;;;;;;2.87;1.30;;;29.10;92.30;;;;;;6245388;23;20147;-79
2021/09/24 12:21:42;;;;;;;2.93;0.80;;;29.90;91.50;;;;;;6244251;23;20185;-80
2021/09/24 12:24:13;;;;;;;1.80;1.00;;;29.80;91.30;;;;;;6244116;23;20162;-81
2021/09/24 12:26:42;;;;;;;3.10;1.13;;;29.50;91.40;;;;;;6244395;23;20155;-82
2021/09/24 12:29:22;;;;;;;6.57;1.30;;;29.40;91.20;;;;;;6245261;22;20154;-82
2021/09/24 12:31:51;;;;;;;1.47;1.07;;;29.00;91.50;;;;;;6245960;22;20146;-86
2021/09/24 12:34:20;;;;;;;2.83;1.63;;;29.20;91.40;;;;;;6245967;23;20132;-80
2021/09/24 12:36:57;;;;;;;5.93;1.97;;;30.20;90.50;;;;;;6243646;23;20147;-80
2021/09/24 12:39:25;;;;;;;1.77;1.00;;;31.20;88.90;;;;;;6243807;23;20158;-79
2021/09/24 12:41:52;;;;;;;3.65;1.00;;;31.40;87.50;;;;;;6244043;23;20171;-79
2021/09/24 12:44:17;;;;;;;2.30;1.08;;;31.20;87.50;;;;;;6246185;22;20158;-79
2021/09/24 12:46:46;;;;;;;2.40;1.30;;;31.40;85.80;;;;;;6242892;23;20147;-81
2021/09/24 14:23:58;;;;;;;1.77;0.83;;;27.30;93.10;;;;;;6244069;22;20642;-80
2021/09/24 14:26:23;;;;;;;1.73;1.00;;;28.30;91.60;;;;;;6244397;23;20148;-80
2021/09/24 14:28:49;;;;;;;1.73;0.73;;;28.40;90.80;;;;;;6243732;23;20247;-80
2021/09/24 14:31:15;;;;;;;3.27;0.83;;;28.40;90.80;;;;;;6243510;23;20159;-83
2021/09/24 14:33:41;;;;;;;1.43;0.63;;;27.90;91.10;;;;;;6244394;22;20218;-80
2021/09/24 14:36:07;;;;;;;2.97;1.10;;;27.10;91.90;;;;;;6243103;23;20193;-80
2021/09/24 14:38:33;;;;;;;3.47;1.17;;;26.40;92.70;;;;;;6243509;23;20627;-80
2021/09/24 14:40:59;;;;;;;1.93;0.87;;;25.60;93.70;;;;;;6245029;23;20138;-81
2021/09/24 14:43:24;;;;;;;3.13;1.00;;;25.10;94.70;;;;;;6243668;23;20599;-80
2021/09/24 14:45:50;;;;;;;2.53;1.13;;;25.80;94.40;;;;;;6244151;23;20154;-80
2021/09/24 14:48:16;;;;;;;2.47;1.03;;;27.00;92.90;;;;;;6242969;23;20178;-80
2021/09/24 14:50:41;;;;;;;2.07;0.70;;;27.10;92.00;;;;;;6245129;23;20189;-80
2021/09/24 14:53:08;;;;;;;1.77;0.70;;;26.80;92.40;;;;;;6243307;23;20488;-80
2021/09/24 14:55:35;;;;;;;1.50;0.87;;;26.60;92.70;;;;;;6243057;23;20160;-80
2021/09/24 14:58:01;;;;;;;5.33;1.10;;;26.40;92.90;;;;;;6241731;23;20206;-79
2021/09/24 15:00:27;;;;;;;2.20;0.70;;;26.00;93.40;;;;;;6245034;23;20165;-80
2021/09/24 15:02:53;;;;;;;4.23;1.00;;;25.80;93.30;;;;;;6242963;23;20184;-79
2021/09/24 15:05:19;;;;;;;1.63;1.20;;;25.70;93.60;;;;;;6241396;23;20188;-79
2021/09/24 15:07:44;;;;;;;2.77;1.10;;;26.10;93.30;;;;;;6244754;23;20224;-82
2021/09/24 15:10:11;;;;;;;1.27;0.67;;;26.80;92.60;;;;;;6243245;23;20150;-81
2021/09/24 15:12:36;;;;;;;1.87;0.77;;;27.40;92.10;;;;;;6243462;23;20162;-80
2021/09/24 15:15:04;;;;;;;1.90;0.90;;;27.90;91.40;;;;;;6242488;23;20197;-79
2021/09/24 15:17:29;;;;;;;4.27;0.97;;;28.00;91.10;;;;;;6217626;23;20181;-79
2021/09/24 15:19:55;;;;;;;3.23;0.77;;;27.40;91.60;;;;;;6244276;23;20218;-81
2021/09/24 15:22:21;;;;;;;1.83;0.93;;;26.60;92.30;;;;;;6243087;23;20253;-78
2021/09/24 15:24:50;;;;;;;2.93;1.13;;;26.00;93.30;;;;;;6243151;23;20165;-83
2021/09/24 15:27:17;;;;;;;2.63;1.10;;;26.00;93.40;;;;;;6232434;23;20168;-90
2021/09/24 15:29:43;;;;;;;1.87;1.10;;;26.00;93.30;;;;;;6241129;23;20195;-91
2021/09/24 15:32:09;;;;;;;1.33;1.00;;;26.40;93.00;;;;;;6242971;23;20153;-89
2021/09/24 15:34:35;;;;;;;1.87;1.10;;;26.00;93.00;;;;;;6251423;23;20285;-91
2021/09/24 15:37:00;;;;;;;2.93;0.73;;;25.90;93.50;;;;;;6250399;23;20233;-79
2021/09/24 15:39:26;;;;;;;3.63;0.80;;;26.40;93.10;;;;;;6249176;23;20156;-81
2021/09/24 15:41:52;;;;;;;1.43;0.93;;;26.50;92.50;;;;;;6249824;23;20185;-89
2021/09/24 15:44:18;;;;;;;1.70;0.63;;;26.00;93.00;;;;;;6251024;23;20522;-89
2021/09/24 15:46:44;;;;;;;2.17;0.73;;;25.90;93.20;;;;;;6251022;23;20168;-90
2021/09/24 15:49:10;;;;;;;1.30;0.67;;;26.40;92.90;;;;;;6253609;23;20147;-88
2021/09/24 15:51:35;;;;;;;4.43;0.73;;;27.00;91.90;;;;;;6251692;23;20141;-86
2021/09/24 15:54:01;;;;;;;1.13;0.80;;;26.70;92.30;;;;;;6252286;23;20161;-88
2021/09/24 15:56:27;;;;;;;1.60;0.70;;;26.30;92.50;;;;;;6250148;23;20155;-87
2021/09/24 15:58:56;;;;;;;2.87;0.93;;;26.00;92.90;;;;;;6248358;23;20211;-84
2021/09/24 16:01:24;;;;;;;1.43;0.70;;;25.70;93.20;;;;;;6250159;23;20230;-85
2021/09/24 16:03:49;;;;;;;1.50;1.13;;;25.50;93.50;;;;;;6228462;23;20170;-84
2021/09/24 16:06:15;;;;;;;1.90;1.13;;;25.20;93.80;;;;;;6252144;23;20154;-87
2021/09/24 16:08:41;;;;;;;1.50;0.90;;;24.80;94.30;;;;;;6251218;23;20298;-83
2021/09/24 16:11:09;;;;;;;2.97;1.20;;;24.70;94.70;;;;;;6249175;23;20151;-82
2021/09/24 16:13:34;;;;;;;2.07;1.30;;;24.70;94.80;;;;;;6250704;23;20226;-80
2021/09/24 16:16:00;;;;;;;2.43;1.13;;;24.50;95.00;;;;;;6243183;22;20623;-80
2021/09/24 16:18:26;;;;;;;1.40;0.80;;;24.50;95.00;;;;;;6243036;23;20213;-87
2021/09/24 16:20:52;;;;;;;1.90;1.10;;;24.20;95.10;;;;;;6242348;23;20187;-89
2021/09/24 16:23:18;;;;;;;1.83;1.10;;;24.10;95.50;;;;;;6243700;23;20214;-86
2021/09/24 16:25:43;;;;;;;1.57;1.10;;;24.10;95.60;;;;;;6245860;23;20151;-86
2021/09/24 16:28:09;;;;;;;1.43;0.97;;;24.00;95.70;;;;;;6242079;23;20147;-87
2021/09/24 16:30:36;;;;;;;2.13;1.17;;;24.10;95.60;;;;;;6243278;23;20714;-84
2021/09/24 16:33:02;;;;;;;2.13;1.10;;;24.50;95.40;;;;;;6245267;23;20182;-86
2021/09/24 16:35:27;;;;;;;2.17;1.30;;;25.00;94.60;;;;;;6245027;23;20241;-87
2021/09/24 16:37:53;;;;;;;5.23;1.27;;;25.20;94.10;;;;;;6243467;23;20147;-87
2021/09/24 16:40:19;;;;;;;4.10;1.67;;;25.20;94.10;;;;;;6244607;23;20198;-79
2021/09/24 16:42:45;;;;;;;1.33;1.20;;;24.90;94.50;;;;;;6243730;23;20222;-80
2021/09/24 16:45:12;;;;;;;1.80;1.13;;;24.50;95.10;;;;;;6245789;23;20442;-83
2021/09/24 16:47:38;;;;;;;3.10;1.60;;;24.20;95.60;;;;;;6244693;23;20165;-84
2021/09/24 16:50:07;;;;;;;2.67;1.90;;;24.40;95.60;;;;;;6244240;23;20544;-86
2021/09/24 16:52:33;;;;;;;3.27;1.53;;;24.60;95.30;;;;;;6244661;23;20163;-79
2021/09/24 16:55:00;;;;;;;3.10;2.10;;;24.50;95.00;;;;;;6244148;23;20577;-79
2021/09/24 16:57:26;;;;;;;1.63;1.33;;;24.20;95.20;;;;;;6244344;23;20584;-80
2021/09/24 16:59:52;;;;;;;2.20;1.80;;;24.10;95.50;;;;;;6245520;23;20225;-85
2021/09/24 17:02:17;;;;;;;2.57;1.47;;;23.90;95.60;;;;;;6244536;23;20190;-85
2021/09/24 17:04:43;;;;;;;2.73;1.60;;;23.50;96.30;;;;;;6244193;23;20576;-80
2021/09/24 17:07:09;;;;;;;3.03;1.70;;;23.10;97.10;;;;;;6244162;23;20155;-85
2021/09/24 17:09:35;;;;;;;3.83;1.80;;;23.00;97.40;;;;;;6245258;23;20576;-85
2021/09/24 17:12:00;;;;;;;2.87;1.93;;;23.00;97.50;;;;;;6244573;23;20206;-85
2021/09/24 17:14:26;;;;;;;4.07;2.23;;;23.00;97.50;;;;;;6245741;23;20146;-83
2021/09/24 17:16:52;;;;;;;2.67;2.20;;;22.70;97.90;;;;;;6244546;22;20256;-82
2021/09/24 17:19:17;;;;;;;3.57;2.37;;;22.70;98.20;;;;;;6245153;23;20238;-81
2021/09/24 17:21:43;;;;;;;4.77;2.43;;;22.60;98.50;;;;;;6244874;23;20181;-79
2021/09/24 17:24:08;;;;;;;3.83;2.73;;;22.60;98.70;;;;;;6244952;23;20213;-83
2021/09/24 17:26:35;;;;;;;7.97;3.07;;;22.40;99.10;;;;;;6245506;22;20148;-83
2021/09/24 17:29:02;;;;;;;5.67;3.53;;;22.20;99.80;;;;;;6244441;23;20134;-79
2021/09/24 17:31:27;;;;;;;6.37;3.60;;;22.00;99.90;;;;;;6246482;23;20135;-83
2021/09/24 17:33:53;;;;;;;9.10;4.60;;;21.90;99.90;;;;;;6246168;23;20468;-86
2021/09/24 17:36:20;;;;;;;5.63;4.73;;;21.80;99.90;;;;;;6244135;23;20146;-87
2021/09/24 17:38:46;;;;;;;6.57;3.93;;;21.70;99.90;;;;;;6244520;23;20231;-86
2021/09/24 17:41:13;;;;;;;7.60;3.97;;;21.50;99.90;;;;;;6244091;23;20150;-84
2021/09/24 17:43:38;;;;;;;5.53;3.60;;;21.50;99.90;;;;;;6244926;23;20223;-86
2021/09/24 17:46:04;;;;;;;7.17;4.17;;;21.50;99.90;;;;;;6244041;23;20154;-85
2021/09/24 17:48:30;;;;;;;7.60;4.67;;;21.40;99.90;;;;;;6246148;23;20517;-79
2021/09/24 17:50:56;;;;;;;7.40;4.73;;;21.40;99.90;;;;;;6246212;23;20517;-81
2021/09/24 17:53:21;;;;;;;8.40;4.70;;;21.30;99.90;;;;;;6246589;22;20572;-79
2021/09/24 17:55:47;;;;;;;8.10;4.87;;;21.30;99.90;;;;;;6244979;23;20164;-80
2021/09/24 17:58:13;;;;;;;7.90;4.77;;;21.30;99.90;;;;;;6243962;23;20150;-79
2021/09/24 18:00:39;;;;;;;8.77;4.60;;;21.40;99.90;;;;;;6246165;23;20145;-84
2021/09/24 18:03:05;;;;;;;8.37;5.13;;;21.40;99.90;;;;;;6243371;23;20214;-81
2021/09/24 18:05:31;;;;;;;8.87;5.00;;;21.40;99.90;;;;;;6233602;23;20155;-84
2021/09/24 18:07:57;;;;;;;6.07;4.30;;;21.40;99.90;;;;;;6241367;23;20150;-86
2021/09/24 18:10:27;;;;;;;8.80;4.97;;;21.30;99.90;;;;;;6244831;23;20457;-87
2021/09/24 18:12:53;;;;;;;9.37;5.00;;;21.40;99.90;;;;;;6242876;23;20204;-87
2021/09/24 18:15:21;;;;;;;7.13;4.97;;;21.30;99.90;;;;;;6244486;23;20150;-79
2021/09/24 18:17:48;;;;;;;7.70;5.30;;;21.30;99.90;;;;;;6246073;22;20172;-79
2021/09/24 18:20:15;;;;;;;8.43;4.67;;;20.90;99.90;;;;;;6243970;23;20566;-79
2021/09/24 18:22:40;;;;;;;9.63;5.43;;;20.90;99.90;;;;;;6244141;23;20766;-83
2021/09/24 18:25:07;;;;;;;8.10;5.57;;;20.80;99.90;;;;;;6243211;23;20148;-80
2021/09/24 18:27:33;;;;;;;8.30;5.00;;;20.90;99.90;;;;;;6243561;23;20179;-82
2021/09/24 18:29:58;;;;;;;7.97;4.90;;;21.00;99.90;;;;;;6245129;23;20665;-85
2021/09/24 18:32:24;;;;;;;10.30;5.00;;;20.80;99.90;;;;;;6244264;23;20739;-79
2021/09/24 18:34:50;;;;;;;7.53;5.30;;;20.50;99.90;;;;;;6243683;23;20156;-80
2021/09/24 18:37:15;;;;;;;9.27;4.80;;;20.50;99.90;;;;;;6243923;23;20173;-82
2021/09/24 18:39:41;;;;;;;7.47;5.27;;;20.60;99.90;;;;;;6242297;23;20153;-80
2021/09/24 18:42:07;;;;;;;12.27;5.60;;;20.60;99.90;;;;;;6242508;23;20185;-81
2021/09/24 18:44:32;;;;;;;8.73;5.33;;;20.70;99.90;;;;;;6245445;23;20538;-84
2021/09/24 18:46:58;;;;;;;8.57;5.57;;;20.70;99.90;;;;;;6244284;23;20185;-83
2021/09/24 18:49:23;;;;;;;9.47;5.50;;;20.80;99.90;;;;;;6243820;23;20228;-82
2021/09/24 18:51:49;;;;;;;9.93;6.07;;;20.80;99.90;;;;;;6246164;23;20539;-82
2021/09/24 18:54:15;;;;;;;10.83;5.70;;;20.70;99.90;;;;;;6243109;23;20154;-81
2021/09/24 18:56:40;;;;;;;10.10;5.80;;;20.70;99.90;;;;;;6245404;23;20146;-80
2021/09/24 18:59:06;;;;;;;9.53;6.10;;;20.70;99.90;;;;;;6244276;23;20161;-78
2021/09/24 19:01:34;;;;;;;10.27;6.30;;;20.60;99.90;;;;;;6231824;23;20536;-80
2021/09/24 19:03:59;;;;;;;10.47;6.20;;;20.40;99.90;;;;;;6247113;22;20137;-79
2021/09/24 19:06:25;;;;;;;8.43;5.43;;;20.40;99.90;;;;;;6242699;23;20263;-80
2021/09/24 19:08:51;;;;;;;9.53;5.97;;;20.40;99.90;;;;;;6241924;23;20559;-79